Norbank — PGIS — position and weather

sailwx.info

Track history (hours):
 
Tides and Currents Weather Stations Pressure Air Temp Water Temp Dewpoint Dewpoint Depression Visibility Wind Speed Wind Dir Waves Ship Positions

Norbank

Operator: P & O Ferries

Last reported at 2017-Nov-20 00:28 UTC. Time now 2017-Nov-21 17:11 UTC.
Position N 53°27' W 003°01'.

Length 167 m; draft 5.5 m.

Type: Ship (hazmat cat A). MMSI: 246213000.

Date/timePositionNaut miles runAvg speedWind from/ knotsBaromVisibWave heightAir tempDewpointWater temp
2017-Nov-20 00:28N 53°27' W 003°01'0 0.0
2017-Nov-19 23:58N 53°27' W 003°01'0 0.0
2017-Nov-19 23:30N 53°27' W 003°01'0 0.9
2017-Nov-19 23:00N 53°27' W 003°01'4 8.9
2017-Nov-19 22:30N 53°30' W 003°06'611.4
2017-Nov-19 22:00N 53°31' W 003°15'1019.6
2017-Nov-19 21:30N 53°31' W 003°32'1121.0
2017-Nov-19 21:00N 53°32' W 003°50'1121.5
2017-Nov-19 20:30N 53°33' W 004°08'73 2.1
2017-Nov-18 10:21N 53°21' W 006°08'616.8
2017-Nov-18 10:00N 53°22' W 005°58'8117.8
2017-Nov-18 05:29N 53°33' W 003°44'918.7
2017-Nov-18 05:00N 53°33' W 003°29'918.5
2017-Nov-18 04:30N 53°31' W 003°14'815.5
2017-Nov-18 04:00N 53°28' W 003°02'1 1.9
2017-Nov-18 03:30N 53°27' W 003°01'0 0.8
2017-Nov-18 02:58N 53°27' W 003°01'0 0.0
2017-Nov-18 02:28N 53°27' W 003°01'0 0.0
2017-Nov-18 01:57N 53°27' W 003°01'0 0.0
2017-Nov-18 01:30N 53°27' W 003°01'0 0.0
2017-Nov-18 00:57N 53°27' W 003°01'0 0.0
2017-Nov-18 00:27N 53°27' W 003°01'0 0.0
2017-Nov-18 00:00N 53°27' W 003°01'0 0.9
2017-Nov-17 23:29N 53°27' W 003°01'0 0.2
2017-Nov-17 23:00N 53°27' W 003°01'3 6.7
2017-Nov-17 22:30N 53°29' W 003°05'612.3
2017-Nov-17 22:00N 53°31' W 003°15'816.7
2017-Nov-17 21:30N 53°31' W 003°29'815.9
2017-Nov-17 21:00N 53°30' W 003°42'815.9
2017-Nov-17 20:30N 53°31' W 003°56'815.8
2017-Nov-17 20:00N 53°32' W 004°09'67 6.8
2017-Nov-17 10:09N 53°22' W 005°60'7918.8
2017-Nov-17 05:56N 53°34' W 003°48'818.3
2017-Nov-17 05:30N 53°33' W 003°35'918.6
2017-Nov-17 05:00N 53°32' W 003°19'815.8
2017-Nov-17 04:30N 53°31' W 003°06'5 9.4
2017-Nov-17 04:00N 53°27' W 003°01'0 0.0
2017-Nov-17 03:31N 53°27' W 003°01'0 0.8
2017-Nov-17 03:00N 53°27' W 003°01'0 0.0
2017-Nov-17 02:30N 53°27' W 003°01'0 0.0
2017-Nov-17 02:00N 53°27' W 003°01'0 0.0
2017-Nov-17 01:30N 53°27' W 003°01'0 0.0
2017-Nov-17 01:00N 53°27' W 003°01'0 0.0
2017-Nov-17 00:30N 53°27' W 003°01'0 0.0
2017-Nov-17 00:00N 53°27' W 003°01'0 0.8
2017-Nov-16 23:30N 53°27' W 003°01'1 1.2
2017-Nov-16 23:00N 53°27' W 003°02'714.8
2017-Nov-16 22:30N 53°31' W 003°13'917.2
2017-Nov-16 22:00N 53°31' W 003°27'714.2
2017-Nov-16 21:30N 53°31' W 003°39'714.5
2017-Nov-16 21:00N 53°31' W 003°51'714.7
2017-Nov-16 20:30N 53°32' W 004°04'10 0.7
2017-Nov-16 06:03N 53°34' W 003°47'118.8
2017-Nov-16 06:00N 53°34' W 003°45'918.9
2017-Nov-16 05:30N 53°33' W 003°29'917.5
2017-Nov-16 05:00N 53°31' W 003°15'713.4
2017-Nov-16 04:30N 53°29' W 003°04'3 5.5
2017-Nov-16 04:00N 53°27' W 003°01'0 0.6
2017-Nov-16 03:30N 53°27' W 003°01'0 0.3
2017-Nov-16 02:58N 53°27' W 003°01'0 0.0
2017-Nov-16 02:28N 53°27' W 003°01'0 0.0
2017-Nov-16 01:58N 53°27' W 003°01'0 0.0
2017-Nov-16 01:28N 53°27' W 003°01'0 0.0
2017-Nov-16 01:00N 53°27' W 003°01'0 0.0
2017-Nov-16 00:24N 53°27' W 003°01'0 0.0
2017-Nov-15 23:57N 53°27' W 003°01'0 0.0
2017-Nov-15 23:27N 53°27' W 003°01'0 0.8
2017-Nov-15 22:56N 53°27' W 003°01'2 4.5
2017-Nov-15 22:30N 53°28' W 003°04'714.7
2017-Nov-15 22:00N 53°31' W 003°15'817.0
2017-Nov-15 21:30N 53°31' W 003°29'816.1
2017-Nov-15 21:00N 53°31' W 003°43'816.0
2017-Nov-15 20:30N 53°33' W 003°56'815.7
2017-Nov-15 20:00N 53°35' W 004°09'17 1.2
2017-Nov-15 05:49N 53°34' W 003°40'619.3
2017-Nov-15 05:30N 53°33' W 003°30'918.5
2017-Nov-15 05:00N 53°31' W 003°15'613.0
2017-Nov-15 04:30N 53°29' W 003°05'3 6.1
2017-Nov-15 04:00N 53°27' W 003°01'0 0.9
2017-Nov-15 03:30N 53°27' W 003°01'0 0.0
2017-Nov-15 02:59N 53°27' W 003°01'0 0.0
2017-Nov-15 02:29N 53°27' W 003°01'0 0.0
2017-Nov-15 01:59N 53°27' W 003°01'0 0.0
2017-Nov-15 01:28N 53°27' W 003°01'0 0.0
2017-Nov-15 00:58N 53°27' W 003°01'0 0.0
2017-Nov-15 00:28N 53°27' W 003°01'0 0.0
2017-Nov-14 23:58N 53°27' W 003°01'0 0.0
2017-Nov-14 23:30N 53°27' W 003°01'0 0.9
2017-Nov-14 23:00N 53°27' W 003°01'0 0.3
2017-Nov-14 22:30N 53°27' W 003°01'714.0
2017-Nov-14 22:01N 53°32' W 003°09'916.9
2017-Nov-14 21:30N 53°31' W 003°24'816.1
2017-Nov-14 21:01N 53°31' W 003°37'815.5
2017-Nov-14 20:30N 53°32' W 003°50'815.6
2017-Nov-14 20:00N 53°33' W 004°03'6516.5
2017-Nov-14 16:03N 53°23' W 005°51'117.2
2017-Nov-14 15:59N 53°22' W 005°53'816.6
2017-Nov-14 15:30N 53°20' W 006°06'4 8.7
2017-Nov-14 15:00N 53°21' W 006°13'0 0.0
2017-Nov-14 14:28N 53°21' W 006°13'0 0.0
2017-Nov-14 13:49N 53°21' W 006°13'0 0.0
2017-Nov-14 13:28N 53°21' W 006°13'0 0.0
2017-Nov-14 12:58N 53°21' W 006°13'0 0.0
2017-Nov-14 12:16N 53°21' W 006°13'0 0.0
2017-Nov-14 11:30N 53°21' W 006°13'0 0.0
2017-Nov-14 11:00N 53°21' W 006°13'1 2.9
2017-Nov-14 10:30N 53°21' W 006°11'815.1
2017-Nov-14 09:58N 53°22' W 005°57'7819.1
2017-Nov-14 05:52N 53°34' W 003°47'617.3
2017-Nov-14 05:30N 53°34' W 003°37'817.1
2017-Nov-14 05:00N 53°32' W 003°23'816.3
2017-Nov-14 04:31N 53°32' W 003°09'713.6
2017-Nov-14 04:00N 53°27' W 003°01'0 0.4
2017-Nov-14 03:30N 53°27' W 003°01'0 0.8
2017-Nov-14 02:58N 53°27' W 003°01'0 0.0
2017-Nov-14 02:28N 53°27' W 003°01'0 0.0
2017-Nov-14 02:00N 53°27' W 003°01'0 0.0
2017-Nov-14 01:30N 53°27' W 003°01'0 0.0
2017-Nov-14 00:57N 53°27' W 003°01'0 0.0
2017-Nov-14 00:30N 53°27' W 003°01'0 0.0
2017-Nov-14 00:00N 53°27' W 003°01'0 0.0
2017-Nov-13 23:29N 53°27' W 003°01'0 0.8
2017-Nov-13 22:58N 53°27' W 003°01'0 0.4
2017-Nov-13 22:30N 53°27' W 003°01'713.9
2017-Nov-13 22:00N 53°32' W 003°10'7 0.3
2017-Nov-13 01:57N 53°27' W 003°01'0 0.0
2017-Nov-13 01:30N 53°27' W 003°01'0 0.0
2017-Nov-13 00:57N 53°27' W 003°01'0 0.0
2017-Nov-13 00:29N 53°27' W 003°01'0 0.0
2017-Nov-12 23:59N 53°27' W 003°01'0 0.0
2017-Nov-12 23:29N 53°27' W 003°01'0 0.9
2017-Nov-12 23:00N 53°27' W 003°01'0 0.2
2017-Nov-12 22:30N 53°27' W 003°01'611.3
2017-Nov-12 22:00N 53°31' W 003°07'815.8
2017-Nov-12 21:30N 53°31' W 003°20'816.4
2017-Nov-12 21:00N 53°31' W 003°34'816.2
2017-Nov-12 20:30N 53°32' W 003°48'917.2
2017-Nov-12 20:00N 53°33' W 004°02'6717.5
2017-Nov-12 16:10N 53°23' W 005°53'319.0
2017-Nov-12 16:00N 53°22' W 005°58'714.4
2017-Nov-12 15:30N 53°21' W 006°10'2 2.4
2017-Nov-12 14:43N 53°21' W 006°13'0 0.0
2017-Nov-12 14:30N 53°21' W 006°13'0 0.0
2017-Nov-12 14:00N 53°21' W 006°13'0 0.0
2017-Nov-12 13:18N 53°21' W 006°13'0 0.0
2017-Nov-12 13:00N 53°21' W 006°13'0 0.0
2017-Nov-12 12:27N 53°21' W 006°13'0 0.0
2017-Nov-12 11:50N 53°21' W 006°13'0 0.0
2017-Nov-12 11:05N 53°21' W 006°13'0 0.0
2017-Nov-12 10:59N 53°21' W 006°13'0 0.0
2017-Nov-12 10:23N 53°21' W 006°13'0 0.0
2017-Nov-12 09:37N 53°21' W 006°13'0 0.0
2017-Nov-12 09:28N 53°21' W 006°13'0 0.0
2017-Nov-12 08:55N 53°21' W 006°13'0 0.0
2017-Nov-12 08:10N 53°21' W 006°13'0 0.0
2017-Nov-12 07:55N 53°21' W 006°13'0 0.0
2017-Nov-12 07:27N 53°21' W 006°13'0 0.0
2017-Nov-12 06:39N 53°21' W 006°13'0 0.0
2017-Nov-12 06:30N 53°21' W 006°13'0 0.0
2017-Nov-12 05:51N 53°21' W 006°13'0 0.0
2017-Nov-12 05:14N 53°21' W 006°13'0 0.0
2017-Nov-12 04:56N 53°21' W 006°13'0 0.0
2017-Nov-12 04:26N 53°21' W 006°13'0 0.0
2017-Nov-12 03:50N 53°21' W 006°13'0 0.0
2017-Nov-12 03:16N 53°21' W 006°13'0 0.0
2017-Nov-12 02:55N 53°21' W 006°13'0 0.0
2017-Nov-12 02:16N 53°21' W 006°13'0 0.0
2017-Nov-12 01:58N 53°21' W 006°13'0 0.0
2017-Nov-12 01:28N 53°21' W 006°13'0 0.0
2017-Nov-12 00:42N 53°21' W 006°13'0 0.0
2017-Nov-12 00:27N 53°21' W 006°13'0 0.0
2017-Nov-11 23:57N 53°21' W 006°13'0 0.0
2017-Nov-11 23:28N 53°21' W 006°13'0 0.0
2017-Nov-11 23:00N 53°21' W 006°13'0 0.0
2017-Nov-11 22:29N 53°21' W 006°13'0 0.0
2017-Nov-11 21:58N 53°21' W 006°13'0 0.0
2017-Nov-11 21:11N 53°21' W 006°13'0 0.0
2017-Nov-11 20:59N 53°21' W 006°13'0 0.0
2017-Nov-11 20:26N 53°21' W 006°13'0 0.0
2017-Nov-11 19:40N 53°21' W 006°13'0 0.0
2017-Nov-11 15:51N 53°21' W 006°13'0 0.0
2017-Nov-11 15:08N 53°21' W 006°13'0 0.0
2017-Nov-11 14:59N 53°21' W 006°13'0 0.0
2017-Nov-11 14:23N 53°21' W 006°13'0 0.0
2017-Nov-11 13:38N 53°21' W 006°13'0 0.0
2017-Nov-11 12:52N 53°21' W 006°13'0 0.0
2017-Nov-11 12:04N 53°21' W 006°13'0 0.0
2017-Nov-11 11:58N 53°21' W 006°13'0 0.0
2017-Nov-11 11:22N 53°21' W 006°13'0 0.0
2017-Nov-11 11:00N 53°21' W 006°13'3 5.1
2017-Nov-11 10:30N 53°21' W 006°09'816.7
2017-Nov-11 10:00N 53°22' W 005°55'7620.7
2017-Nov-11 06:19N 53°33' W 003°48'721.6
2017-Nov-11 06:00N 53°33' W 003°37'1121.0
2017-Nov-11 05:30N 53°31' W 003°19'816.8
2017-Nov-11 05:00N 53°30' W 003°06'5 9.1
2017-Nov-11 04:30N 53°26' W 003°01'0 0.9
2017-Nov-11 04:00N 53°27' W 003°01'1 1.3
2017-Nov-11 03:30N 53°27' W 003°01'0 0.0
2017-Nov-11 02:59N 53°27' W 003°01'0 0.0
2017-Nov-11 02:28N 53°27' W 003°01'0 0.0
2017-Nov-11 01:49N 53°27' W 003°01'0 0.0
2017-Nov-11 01:25N 53°27' W 003°01'0 0.0
2017-Nov-11 00:58N 53°27' W 003°01'0 0.0
2017-Nov-11 00:28N 53°27' W 003°01'0 0.0
2017-Nov-11 00:00N 53°27' W 003°01'0 0.0
2017-Nov-10 23:30N 53°27' W 003°01'0 0.8
2017-Nov-10 22:58N 53°27' W 003°01'0 0.3
2017-Nov-10 22:30N 53°27' W 003°01'611.3
2017-Nov-10 22:00N 53°31' W 003°07'815.5
2017-Nov-10 21:30N 53°31' W 003°20'918.7
2017-Nov-10 21:00N 53°31' W 003°36'918.2
2017-Nov-10 20:30N 53°32' W 003°51'7416.6
2017-Nov-10 16:03N 53°23' W 005°54'116.9
2017-Nov-10 16:00N 53°23' W 005°55'815.5
2017-Nov-10 15:30N 53°20' W 006°08'3 6.5
2017-Nov-10 15:00N 53°21' W 006°13'0 0.0
2017-Nov-10 14:08N 53°21' W 006°13'0 0.0
2017-Nov-10 13:19N 53°21' W 006°13'0 0.0
2017-Nov-10 12:37N 53°21' W 006°13'0 0.0
2017-Nov-10 12:28N 53°21' W 006°13'0 0.0
2017-Nov-10 11:49N 53°21' W 006°13'0 0.0
2017-Nov-10 11:00N 53°21' W 006°13'0 0.7
2017-Nov-10 10:30N 53°21' W 006°13'511.1
2017-Nov-10 10:00N 53°21' W 006°03'917.6
2017-Nov-10 09:30N 53°24' W 005°49'6719.3
2017-Nov-10 06:04N 53°35' W 003°59'218.4
2017-Nov-10 05:58N 53°35' W 003°56'818.2
2017-Nov-10 05:30N 53°34' W 003°42'917.9
2017-Nov-10 05:00N 53°33' W 003°27'917.7
2017-Nov-10 04:30N 53°31' W 003°13'815.4
2017-Nov-10 04:00N 53°27' W 003°02'0 0.9
2017-Nov-10 03:30N 53°27' W 003°01'0 0.9
2017-Nov-10 03:00N 53°27' W 003°01'0 0.0
2017-Nov-10 02:30N 53°27' W 003°01'0 0.0
2017-Nov-10 01:56N 53°27' W 003°01'0 0.0
2017-Nov-10 01:29N 53°27' W 003°01'0 0.0
2017-Nov-10 00:59N 53°27' W 003°01'  
Track history (hours):
 
Tides and Currents Weather Stations Pressure Air Temp Water Temp Dewpoint Dewpoint Depression Visibility Wind Speed Wind Dir Waves Ship Positions

Norbank

Operator: P & O Ferries

Last reported at 2017-Nov-20 00:28 UTC. Time now 2017-Nov-21 17:11 UTC.
Position N 53°27' W 003°01'.

Length 167 m; draft 5.5 m.

Type: Ship (hazmat cat A). MMSI: 246213000.

Date/timePositionNaut miles runAvg speedWind from/ knotsBaromVisibWave heightAir tempDewpointWater temp
2017-Nov-20 00:28N 53°27' W 003°01'0 0.0
2017-Nov-19 23:58N 53°27' W 003°01'0 0.0
2017-Nov-19 23:30N 53°27' W 003°01'0 0.9
2017-Nov-19 23:00N 53°27' W 003°01'4 8.9
2017-Nov-19 22:30N 53°30' W 003°06'611.4
2017-Nov-19 22:00N 53°31' W 003°15'1019.6
2017-Nov-19 21:30N 53°31' W 003°32'1121.0
2017-Nov-19 21:00N 53°32' W 003°50'1121.5
2017-Nov-19 20:30N 53°33' W 004°08'73 2.1
2017-Nov-18 10:21N 53°21' W 006°08'616.8
2017-Nov-18 10:00N 53°22' W 005°58'8117.8
2017-Nov-18 05:29N 53°33' W 003°44'918.7
2017-Nov-18 05:00N 53°33' W 003°29'918.5
2017-Nov-18 04:30N 53°31' W 003°14'815.5
2017-Nov-18 04:00N 53°28' W 003°02'1 1.9
2017-Nov-18 03:30N 53°27' W 003°01'0 0.8
2017-Nov-18 02:58N 53°27' W 003°01'0 0.0
2017-Nov-18 02:28N 53°27' W 003°01'0 0.0
2017-Nov-18 01:57N 53°27' W 003°01'0 0.0
2017-Nov-18 01:30N 53°27' W 003°01'0 0.0
2017-Nov-18 00:57N 53°27' W 003°01'0 0.0
2017-Nov-18 00:27N 53°27' W 003°01'0 0.0
2017-Nov-18 00:00N 53°27' W 003°01'0 0.9
2017-Nov-17 23:29N 53°27' W 003°01'0 0.2
2017-Nov-17 23:00N 53°27' W 003°01'3 6.7
2017-Nov-17 22:30N 53°29' W 003°05'612.3
2017-Nov-17 22:00N 53°31' W 003°15'816.7
2017-Nov-17 21:30N 53°31' W 003°29'815.9
2017-Nov-17 21:00N 53°30' W 003°42'815.9
2017-Nov-17 20:30N 53°31' W 003°56'815.8
2017-Nov-17 20:00N 53°32' W 004°09'67 6.8
2017-Nov-17 10:09N 53°22' W 005°60'7918.8
2017-Nov-17 05:56N 53°34' W 003°48'818.3
2017-Nov-17 05:30N 53°33' W 003°35'918.6
2017-Nov-17 05:00N 53°32' W 003°19'815.8
2017-Nov-17 04:30N 53°31' W 003°06'5 9.4
2017-Nov-17 04:00N 53°27' W 003°01'0 0.0
2017-Nov-17 03:31N 53°27' W 003°01'0 0.8
2017-Nov-17 03:00N 53°27' W 003°01'0 0.0
2017-Nov-17 02:30N 53°27' W 003°01'0 0.0
2017-Nov-17 02:00N 53°27' W 003°01'0 0.0
2017-Nov-17 01:30N 53°27' W 003°01'0 0.0
2017-Nov-17 01:00N 53°27' W 003°01'0 0.0
2017-Nov-17 00:30N 53°27' W 003°01'0 0.0
2017-Nov-17 00:00N 53°27' W 003°01'0 0.8
2017-Nov-16 23:30N 53°27' W 003°01'1 1.2
2017-Nov-16 23:00N 53°27' W 003°02'714.8
2017-Nov-16 22:30N 53°31' W 003°13'917.2
2017-Nov-16 22:00N 53°31' W 003°27'714.2
2017-Nov-16 21:30N 53°31' W 003°39'714.5
2017-Nov-16 21:00N 53°31' W 003°51'714.7
2017-Nov-16 20:30N 53°32' W 004°04'10 0.7
2017-Nov-16 06:03N 53°34' W 003°47'118.8
2017-Nov-16 06:00N 53°34' W 003°45'918.9
2017-Nov-16 05:30N 53°33' W 003°29'917.5
2017-Nov-16 05:00N 53°31' W 003°15'713.4
2017-Nov-16 04:30N 53°29' W 003°04'3 5.5
2017-Nov-16 04:00N 53°27' W 003°01'0 0.6
2017-Nov-16 03:30N 53°27' W 003°01'0 0.3
2017-Nov-16 02:58N 53°27' W 003°01'0 0.0
2017-Nov-16 02:28N 53°27' W 003°01'0 0.0
2017-Nov-16 01:58N 53°27' W 003°01'0 0.0
2017-Nov-16 01:28N 53°27' W 003°01'0 0.0
2017-Nov-16 01:00N 53°27' W 003°01'0 0.0
2017-Nov-16 00:24N 53°27' W 003°01'0 0.0
2017-Nov-15 23:57N 53°27' W 003°01'0 0.0
2017-Nov-15 23:27N 53°27' W 003°01'0 0.8
2017-Nov-15 22:56N 53°27' W 003°01'2 4.5
2017-Nov-15 22:30N 53°28' W 003°04'714.7
2017-Nov-15 22:00N 53°31' W 003°15'817.0
2017-Nov-15 21:30N 53°31' W 003°29'816.1
2017-Nov-15 21:00N 53°31' W 003°43'816.0
2017-Nov-15 20:30N 53°33' W 003°56'815.7
2017-Nov-15 20:00N 53°35' W 004°09'17 1.2
2017-Nov-15 05:49N 53°34' W 003°40'619.3
2017-Nov-15 05:30N 53°33' W 003°30'918.5
2017-Nov-15 05:00N 53°31' W 003°15'613.0
2017-Nov-15 04:30N 53°29' W 003°05'3 6.1
2017-Nov-15 04:00N 53°27' W 003°01'0 0.9
2017-Nov-15 03:30N 53°27' W 003°01'0 0.0
2017-Nov-15 02:59N 53°27' W 003°01'0 0.0
2017-Nov-15 02:29N 53°27' W 003°01'0 0.0
2017-Nov-15 01:59N 53°27' W 003°01'0 0.0
2017-Nov-15 01:28N 53°27' W 003°01'0 0.0
2017-Nov-15 00:58N 53°27' W 003°01'0 0.0
2017-Nov-15 00:28N 53°27' W 003°01'0 0.0
2017-Nov-14 23:58N 53°27' W 003°01'0 0.0
2017-Nov-14 23:30N 53°27' W 003°01'0 0.9
2017-Nov-14 23:00N 53°27' W 003°01'0 0.3
2017-Nov-14 22:30N 53°27' W 003°01'714.0
2017-Nov-14 22:01N 53°32' W 003°09'916.9
2017-Nov-14 21:30N 53°31' W 003°24'816.1
2017-Nov-14 21:01N 53°31' W 003°37'815.5
2017-Nov-14 20:30N 53°32' W 003°50'815.6
2017-Nov-14 20:00N 53°33' W 004°03'6516.5
2017-Nov-14 16:03N 53°23' W 005°51'117.2
2017-Nov-14 15:59N 53°22' W 005°53'816.6
2017-Nov-14 15:30N 53°20' W 006°06'4 8.7
2017-Nov-14 15:00N 53°21' W 006°13'0 0.0
2017-Nov-14 14:28N 53°21' W 006°13'0 0.0
2017-Nov-14 13:49N 53°21' W 006°13'0 0.0
2017-Nov-14 13:28N 53°21' W 006°13'0 0.0
2017-Nov-14 12:58N 53°21' W 006°13'0 0.0
2017-Nov-14 12:16N 53°21' W 006°13'0 0.0
2017-Nov-14 11:30N 53°21' W 006°13'0 0.0
2017-Nov-14 11:00N 53°21' W 006°13'1 2.9
2017-Nov-14 10:30N 53°21' W 006°11'815.1
2017-Nov-14 09:58N 53°22' W 005°57'7819.1
2017-Nov-14 05:52N 53°34' W 003°47'617.3
2017-Nov-14 05:30N 53°34' W 003°37'817.1
2017-Nov-14 05:00N 53°32' W 003°23'816.3
2017-Nov-14 04:31N 53°32' W 003°09'713.6
2017-Nov-14 04:00N 53°27' W 003°01'0 0.4
2017-Nov-14 03:30N 53°27' W 003°01'0 0.8
2017-Nov-14 02:58N 53°27' W 003°01'0 0.0
2017-Nov-14 02:28N 53°27' W 003°01'0 0.0
2017-Nov-14 02:00N 53°27' W 003°01'0 0.0
2017-Nov-14 01:30N 53°27' W 003°01'0 0.0
2017-Nov-14 00:57N 53°27' W 003°01'0 0.0
2017-Nov-14 00:30N 53°27' W 003°01'0 0.0
2017-Nov-14 00:00N 53°27' W 003°01'0 0.0
2017-Nov-13 23:29N 53°27' W 003°01'0 0.8
2017-Nov-13 22:58N 53°27' W 003°01'0 0.4
2017-Nov-13 22:30N 53°27' W 003°01'713.9
2017-Nov-13 22:00N 53°32' W 003°10'7 0.3
2017-Nov-13 01:57N 53°27' W 003°01'0 0.0
2017-Nov-13 01:30N 53°27' W 003°01'0 0.0
2017-Nov-13 00:57N 53°27' W 003°01'0 0.0
2017-Nov-13 00:29N 53°27' W 003°01'0 0.0
2017-Nov-12 23:59N 53°27' W 003°01'0 0.0
2017-Nov-12 23:29N 53°27' W 003°01'0 0.9
2017-Nov-12 23:00N 53°27' W 003°01'0 0.2
2017-Nov-12 22:30N 53°27' W 003°01'611.3
2017-Nov-12 22:00N 53°31' W 003°07'815.8
2017-Nov-12 21:30N 53°31' W 003°20'816.4
2017-Nov-12 21:00N 53°31' W 003°34'816.2
2017-Nov-12 20:30N 53°32' W 003°48'917.2
2017-Nov-12 20:00N 53°33' W 004°02'6717.5
2017-Nov-12 16:10N 53°23' W 005°53'319.0
2017-Nov-12 16:00N 53°22' W 005°58'714.4
2017-Nov-12 15:30N 53°21' W 006°10'2 2.4
2017-Nov-12 14:43N 53°21' W 006°13'0 0.0
2017-Nov-12 14:30N 53°21' W 006°13'0 0.0
2017-Nov-12 14:00N 53°21' W 006°13'0 0.0
2017-Nov-12 13:18N 53°21' W 006°13'0 0.0
2017-Nov-12 13:00N 53°21' W 006°13'0 0.0
2017-Nov-12 12:27N 53°21' W 006°13'0 0.0
2017-Nov-12 11:50N 53°21' W 006°13'0 0.0
2017-Nov-12 11:05N 53°21' W 006°13'0 0.0
2017-Nov-12 10:59N 53°21' W 006°13'0 0.0
2017-Nov-12 10:23N 53°21' W 006°13'0 0.0
2017-Nov-12 09:37N 53°21' W 006°13'0 0.0
2017-Nov-12 09:28N 53°21' W 006°13'0 0.0
2017-Nov-12 08:55N 53°21' W 006°13'0 0.0
2017-Nov-12 08:10N 53°21' W 006°13'0 0.0
2017-Nov-12 07:55N 53°21' W 006°13'0 0.0
2017-Nov-12 07:27N 53°21' W 006°13'0 0.0
2017-Nov-12 06:39N 53°21' W 006°13'0 0.0
2017-Nov-12 06:30N 53°21' W 006°13'0 0.0
2017-Nov-12 05:51N 53°21' W 006°13'0 0.0
2017-Nov-12 05:14N 53°21' W 006°13'0 0.0
2017-Nov-12 04:56N 53°21' W 006°13'0 0.0
2017-Nov-12 04:26N 53°21' W 006°13'0 0.0
2017-Nov-12 03:50N 53°21' W 006°13'0 0.0
2017-Nov-12 03:16N 53°21' W 006°13'0 0.0
2017-Nov-12 02:55N 53°21' W 006°13'0 0.0
2017-Nov-12 02:16N 53°21' W 006°13'0 0.0
2017-Nov-12 01:58N 53°21' W 006°13'0 0.0
2017-Nov-12 01:28N 53°21' W 006°13'0 0.0
2017-Nov-12 00:42N 53°21' W 006°13'0 0.0
2017-Nov-12 00:27N 53°21' W 006°13'0 0.0
2017-Nov-11 23:57N 53°21' W 006°13'0 0.0
2017-Nov-11 23:28N 53°21' W 006°13'0 0.0
2017-Nov-11 23:00N 53°21' W 006°13'0 0.0
2017-Nov-11 22:29N 53°21' W 006°13'0 0.0
2017-Nov-11 21:58N 53°21' W 006°13'0 0.0
2017-Nov-11 21:11N 53°21' W 006°13'0 0.0
2017-Nov-11 20:59N 53°21' W 006°13'0 0.0
2017-Nov-11 20:26N 53°21' W 006°13'0 0.0
2017-Nov-11 19:40N 53°21' W 006°13'0 0.0
2017-Nov-11 15:51N 53°21' W 006°13'0 0.0
2017-Nov-11 15:08N 53°21' W 006°13'0 0.0
2017-Nov-11 14:59N 53°21' W 006°13'0 0.0
2017-Nov-11 14:23N 53°21' W 006°13'0 0.0
2017-Nov-11 13:38N 53°21' W 006°13'0 0.0
2017-Nov-11 12:52N 53°21' W 006°13'0 0.0
2017-Nov-11 12:04N 53°21' W 006°13'0 0.0
2017-Nov-11 11:58N 53°21' W 006°13'0 0.0
2017-Nov-11 11:22N 53°21' W 006°13'0 0.0
2017-Nov-11 11:00N 53°21' W 006°13'3 5.1
2017-Nov-11 10:30N 53°21' W 006°09'816.7
2017-Nov-11 10:00N 53°22' W 005°55'7620.7
2017-Nov-11 06:19N 53°33' W 003°48'721.6
2017-Nov-11 06:00N 53°33' W 003°37'1121.0
2017-Nov-11 05:30N 53°31' W 003°19'816.8
2017-Nov-11 05:00N 53°30' W 003°06'5 9.1
2017-Nov-11 04:30N 53°26' W 003°01'0 0.9
2017-Nov-11 04:00N 53°27' W 003°01'1 1.3
2017-Nov-11 03:30N 53°27' W 003°01'0 0.0
2017-Nov-11 02:59N 53°27' W 003°01'0 0.0
2017-Nov-11 02:28N 53°27' W 003°01'0 0.0
2017-Nov-11 01:49N 53°27' W 003°01'0 0.0
2017-Nov-11 01:25N 53°27' W 003°01'0 0.0
2017-Nov-11 00:58N 53°27' W 003°01'0 0.0
2017-Nov-11 00:28N 53°27' W 003°01'0 0.0
2017-Nov-11 00:00N 53°27' W 003°01'0 0.0
2017-Nov-10 23:30N 53°27' W 003°01'0 0.8
2017-Nov-10 22:58N 53°27' W 003°01'0 0.3
2017-Nov-10 22:30N 53°27' W 003°01'611.3
2017-Nov-10 22:00N 53°31' W 003°07'815.5
2017-Nov-10 21:30N 53°31' W 003°20'918.7
2017-Nov-10 21:00N 53°31' W 003°36'918.2
2017-Nov-10 20:30N 53°32' W 003°51'7416.6
2017-Nov-10 16:03N 53°23' W 005°54'116.9
2017-Nov-10 16:00N 53°23' W 005°55'815.5
2017-Nov-10 15:30N 53°20' W 006°08'3 6.5
2017-Nov-10 15:00N 53°21' W 006°13'0 0.0
2017-Nov-10 14:08N 53°21' W 006°13'0 0.0
2017-Nov-10 13:19N 53°21' W 006°13'0 0.0
2017-Nov-10 12:37N 53°21' W 006°13'0 0.0
2017-Nov-10 12:28N 53°21' W 006°13'0 0.0
2017-Nov-10 11:49N 53°21' W 006°13'0 0.0
2017-Nov-10 11:00N 53°21' W 006°13'0 0.7
2017-Nov-10 10:30N 53°21' W 006°13'511.1
2017-Nov-10 10:00N 53°21' W 006°03'917.6
2017-Nov-10 09:30N 53°24' W 005°49'6719.3
2017-Nov-10 06:04N 53°35' W 003°59'218.4
2017-Nov-10 05:58N 53°35' W 003°56'818.2
2017-Nov-10 05:30N 53°34' W 003°42'917.9
2017-Nov-10 05:00N 53°33' W 003°27'917.7
2017-Nov-10 04:30N 53°31' W 003°13'815.4
2017-Nov-10 04:00N 53°27' W 003°02'0 0.9
2017-Nov-10 03:30N 53°27' W 003°01'0 0.9
2017-Nov-10 03:00N 53°27' W 003°01'0 0.0
2017-Nov-10 02:30N 53°27' W 003°01'0 0.0
2017-Nov-10 01:56N 53°27' W 003°01'0 0.0
2017-Nov-10 01:29N 53°27' W 003°01'0 0.0
2017-Nov-10 00:59N 53°27' W 003°01'  

Dump ship's entire track history